Govert, South Dakota
Current Conditions -  °F | °C
As of 1:53 PM on Thursday 27 Nov 2014 (Local Time) from KHEI Reporting Station
Overcast Overcast  
Wind Chill:   Ceiling: 1000
Heat Index: 22°   Visibility: 10mi
Dew Point: 18°   Wind: 15mph
Humidity: 85%   Direction: 170°S
Pressure: 29.92"   Gusts: NA
Location:  45.5161°N, 102.519°W
Report Text: KHEI 272053Z AUTO 17013KT 10SM BKN010 OVC095 M06/M08 A2992 RMK AO2 SLP177 60000 T10561078 56037
Loading
Personal Weather Stations






























Interactive Weather Map New forecast layout! Learn more

10-Day Weather Forecast

Advertisements
Track Severe Weather on mobile